Time;durP1;ratioP1;P1;durP2;ratioP2;P2;SDS_P1;SDS_P2;PMS_P1;PMS_P2;Temp;Humidity;BMP_temperature;BMP_pressure;BME280_temperature;BME280_humidity;BME280_pressure;Samples;Min_cycle;Max_cycle;Signal;HPM_P1;HPM_P2
2022/04/16 00:01:43;;;;;;;21.80;13.63;;;;;;;6.54;88.14;102735.06;5056880;28;20473;-75
2022/04/16 00:04:09;;;;;;;22.02;14.65;;;;;;;6.54;88.32;102735.06;5055756;28;20071;-75
2022/04/16 00:06:35;;;;;;;23.40;13.00;;;;;;;6.53;88.26;102731.63;5058574;28;20035;-75
2022/04/16 00:09:01;;;;;;;24.27;14.27;;;;;;;6.55;88.08;102734.13;5042646;28;20024;-75
2022/04/16 00:11:27;;;;;;;27.10;14.40;;;;;;;6.53;88.21;102729.03;5039423;28;20594;-75
2022/04/16 00:13:52;;;;;;;22.35;13.57;;;;;;;6.50;88.19;102723.22;5040942;28;20028;-75
2022/04/16 00:16:18;;;;;;;24.90;14.85;;;;;;;6.47;88.12;102726.81;5041240;28;20071;-75
2022/04/16 00:18:44;;;;;;;27.38;14.25;;;;;;;6.45;88.47;102728.63;5057528;28;20036;-75
2022/04/16 00:21:10;;;;;;;23.17;13.93;;;;;;;6.41;88.53;102716.81;5058442;28;20497;-75
2022/04/16 00:23:37;;;;;;;25.83;15.68;;;;;;;6.39;88.41;102727.22;5039715;28;20127;-75
2022/04/16 00:26:03;;;;;;;26.95;15.15;;;;;;;6.35;88.80;102722.31;5036022;28;20181;-75
2022/04/16 00:28:29;;;;;;;27.48;15.15;;;;;;;6.32;89.08;102725.88;5021899;28;20154;-75
2022/04/16 00:30:56;;;;;;;26.33;16.15;;;;;;;6.29;89.34;102728.63;5055759;28;20033;-75
2022/04/16 00:33:22;;;;;;;27.92;16.20;;;;;;;6.29;89.42;102725.19;5024568;28;20138;-75
2022/04/16 00:35:48;;;;;;;28.48;16.70;;;;;;;6.30;89.92;102724.28;5058016;28;20032;-75
2022/04/16 00:38:14;;;;;;;31.38;18.63;;;;;;;6.30;90.31;102724.28;5035349;28;20663;-75
2022/04/16 00:40:39;;;;;;;30.23;17.08;;;;;;;6.28;90.59;102719.22;5024708;28;20064;-75
2022/04/16 00:43:06;;;;;;;31.27;17.73;;;;;;;6.32;90.29;102723.28;5042448;28;20024;-75
2022/04/16 00:45:31;;;;;;;26.98;17.25;;;;;;;6.26;90.64;102715.91;5056744;28;20032;-76
2022/04/16 00:47:59;;;;;;;27.70;15.73;;;;;;;6.22;90.97;102720.38;5059653;28;20031;-75
2022/04/16 00:50:25;;;;;;;37.05;19.00;;;;;;;6.19;90.94;102717.13;5040261;28;20041;-75
2022/04/16 00:52:51;;;;;;;32.88;17.60;;;;;;;6.20;91.49;102722.19;5039108;28;20031;-75
2022/04/16 00:55:17;;;;;;;29.08;17.70;;;;;;;6.17;91.17;102721.53;5039044;28;20505;-76
2022/04/16 00:57:43;;;;;;;30.73;16.75;;;;;;;6.19;90.99;102722.28;5056439;28;20024;-75
2022/04/16 01:00:11;;;;;;;30.85;16.33;;;;;;;6.18;91.49;102721.44;5042253;28;20033;-75
2022/04/16 01:02:38;;;;;;;31.23;18.13;;;;;;;6.14;91.18;102722.53;5041418;28;20070;-75
2022/04/16 01:05:04;;;;;;;30.00;17.63;;;;;;;6.17;90.91;102729.25;5043206;28;20549;-75
2022/04/16 01:07:30;;;;;;;32.72;18.17;;;;;;;6.15;91.33;102728.50;5057704;28;20037;-75
2022/04/16 01:09:56;;;;;;;34.30;17.92;;;;;;;6.13;91.40;102723.44;5042121;28;20372;-75
2022/04/16 01:12:21;;;;;;;31.65;17.33;;;;;;;6.15;91.45;102731.09;5042022;28;20405;-75
2022/04/16 01:14:50;;;;;;;30.02;17.23;;;;;;;6.14;91.44;102739.72;5059188;28;20397;-76
2022/04/16 01:17:16;;;;;;;36.42;18.33;;;;;;;6.12;91.98;102739.81;5024352;28;20060;-75
2022/04/16 01:19:42;;;;;;;30.48;17.77;;;;;;;6.12;91.74;102733.81;5061401;28;20332;-75
2022/04/16 01:22:14;;;;;;;32.05;17.42;;;;;;;6.11;91.50;102734.72;5043224;28;20547;-75
2022/04/16 01:24:43;;;;;;;27.98;17.50;;;;;;;6.11;91.81;102732.16;5055792;28;20124;-75
2022/04/16 01:27:10;;;;;;;27.73;16.85;;;;;;;6.09;91.91;102736.56;5038057;28;20041;-75
2022/04/16 01:29:36;;;;;;;30.20;17.58;;;;;;;6.04;91.65;102729.88;5052958;28;21284;-75
2022/04/16 01:32:01;;;;;;;29.40;17.10;;;;;;;6.03;91.20;102732.56;5039316;28;20409;-75
2022/04/16 01:34:27;;;;;;;29.88;16.90;;;;;;;6.01;91.08;102744.69;5059325;28;20032;-74
2022/04/16 01:36:52;;;;;;;28.65;17.20;;;;;;;5.97;90.93;102743.16;5040280;28;20057;-75
2022/04/16 01:39:18;;;;;;;26.67;16.35;;;;;;;5.93;91.23;102745.03;5037392;28;20077;-75
2022/04/16 01:41:43;;;;;;;29.30;16.58;;;;;;;5.90;91.02;102745.19;5042061;28;20035;-75
2022/04/16 01:44:09;;;;;;;32.40;16.88;;;;;;;5.88;90.65;102749.59;5041805;28;20040;-75
2022/04/16 01:46:35;;;;;;;31.40;17.15;;;;;;;5.86;91.14;102751.41;5040373;28;20520;-75
2022/04/16 01:49:01;;;;;;;28.73;17.05;;;;;;;5.86;90.88;102751.41;5042497;28;20036;-75
2022/04/16 01:51:26;;;;;;;31.00;17.70;;;;;;;5.83;90.57;102752.38;5025984;28;20032;-75
2022/04/16 01:53:52;;;;;;;35.75;19.13;;;;;;;5.82;90.48;102753.31;5040353;28;20036;-75
2022/04/16 01:56:17;;;;;;;31.80;17.67;;;;;;;5.82;90.81;102752.44;5029190;28;20037;-75
2022/04/16 01:58:44;;;;;;;32.00;19.83;;;;;;;5.82;90.76;102763.59;5059646;28;20039;-75
2022/04/16 02:01:10;;;;;;;34.25;19.48;;;;;;;5.78;90.90;102754.38;5045806;28;20032;-75
2022/04/16 02:03:36;;;;;;;32.25;19.15;;;;;;;5.76;91.30;102757.91;5041313;28;20024;-75
2022/04/16 02:06:03;;;;;;;33.72;18.75;;;;;;;5.75;91.27;102764.81;5038331;28;20037;-75
2022/04/16 02:08:28;;;;;;;36.50;18.33;;;;;;;5.74;91.20;102765.72;5060740;28;20103;-75
2022/04/16 02:10:54;;;;;;;30.65;18.83;;;;;;;5.73;91.14;102766.63;5059860;28;20482;-75
2022/04/16 02:13:19;;;;;;;32.50;19.48;;;;;;;5.71;91.47;102767.59;5042870;28;20728;-75
2022/04/16 02:15:45;;;;;;;34.00;18.45;;;;;;;5.69;91.70;102775.44;5025161;28;20604;-75
2022/04/16 02:18:10;;;;;;;33.67;19.88;;;;;;;5.68;91.57;102778.91;5042129;28;20032;-75
2022/04/16 02:20:36;;;;;;;32.28;19.45;;;;;;;5.64;91.71;102777.38;5041678;28;20037;-76
2022/04/16 02:23:03;;;;;;;32.63;18.58;;;;;;;5.63;91.73;102779.13;5057125;28;20036;-76
2022/04/16 02:25:31;;;;;;;33.17;19.77;;;;;;;5.59;91.86;102780.16;5039891;28;20701;-75
2022/04/16 02:27:56;;;;;;;37.88;20.05;;;;;;;5.59;91.69;102776.78;5043194;28;21335;-75
2022/04/16 02:30:22;;;;;;;33.33;18.60;;;;;;;5.56;91.30;102784.66;5040739;28;20036;-75
2022/04/16 02:32:52;;;;;;;32.08;18.63;;;;;;;5.53;91.45;102772.75;5059469;28;20027;-75
2022/04/16 02:35:18;;;;;;;33.22;19.33;;;;;;;5.52;91.46;102780.53;5044146;28;20048;-75
2022/04/16 02:37:44;;;;;;;33.35;19.15;;;;;;;5.50;91.59;102783.22;5058995;28;20069;-75
2022/04/16 02:40:10;;;;;;;31.50;18.67;;;;;;;5.47;91.47;102779.03;5041724;28;20041;-75
2022/04/16 02:42:37;;;;;;;34.40;19.08;;;;;;;5.43;91.64;102792.13;5041260;28;20020;-75
2022/04/16 02:47:48;;;;;;;33.85;19.33;;;;;;;5.35;91.46;102791.66;5059399;28;20028;-75
2022/04/16 02:50:14;;;;;;;37.75;20.50;;;;;;;5.33;91.48;102790.88;5058482;28;20450;-75
2022/04/16 02:52:40;;;;;;;32.70;19.05;;;;;;;5.30;91.39;102794.47;5039230;28;20032;-75
2022/04/16 02:55:06;;;;;;;33.22;19.23;;;;;;;5.30;91.48;102801.34;5056535;28;20043;-75
2022/04/16 02:57:33;;;;;;;35.13;18.45;;;;;;;5.26;91.61;102795.50;5055779;28;20032;-75
2022/04/16 02:59:58;;;;;;;34.72;20.15;;;;;;;5.22;91.48;102799.97;5042087;28;20060;-75
2022/04/16 03:02:24;;;;;;;36.03;20.58;;;;;;;5.21;91.51;102800.03;5042300;28;20036;-75
2022/04/16 03:04:50;;;;;;;35.13;19.42;;;;;;;5.16;91.69;102805.41;5053901;28;20029;-75
2022/04/16 03:07:16;;;;;;;35.25;20.13;;;;;;;5.15;91.83;102806.28;5039949;28;20096;-75
2022/04/16 03:09:42;;;;;;;34.00;18.73;;;;;;;5.12;91.98;102801.28;5057081;28;20681;-75
2022/04/16 03:12:07;;;;;;;35.67;20.75;;;;;;;5.10;91.77;102805.66;5041587;28;20040;-75
2022/04/16 03:17:32;;;;;;;35.30;18.65;;;;;;;5.06;91.58;102809.28;5058552;28;20549;-75
2022/04/16 03:19:59;;;;;;;36.65;20.67;;;;;;;5.02;91.95;102807.78;5041391;28;20363;-75
2022/04/16 03:22:25;;;;;;;33.58;19.73;;;;;;;5.00;91.86;102809.59;5025936;28;20040;-75
2022/04/16 03:24:51;;;;;;;33.40;19.73;;;;;;;4.98;91.96;102809.66;5035811;28;20044;-76
2022/04/16 03:27:16;;;;;;;35.00;19.77;;;;;;;4.95;91.93;102808.94;5025635;28;20032;-76
2022/04/16 03:29:42;;;;;;;33.53;19.63;;;;;;;4.92;91.88;102806.53;5040461;28;20151;-75
2022/04/16 03:32:08;;;;;;;36.17;20.48;;;;;;;4.90;92.01;102813.47;5039234;28;20025;-74
2022/04/16 03:34:33;;;;;;;35.20;19.17;;;;;;;4.86;92.21;102805.91;5042660;28;20047;-75
2022/04/16 03:36:59;;;;;;;30.00;18.20;;;;;;;4.82;91.66;102812.09;5040882;28;20051;-75
2022/04/16 03:39:25;;;;;;;31.95;18.55;;;;;;;4.79;91.86;102812.22;5040674;28;20477;-75
2022/04/16 03:41:51;;;;;;;31.80;18.27;;;;;;;4.77;91.80;102808.88;5058106;28;20029;-75
2022/04/16 03:44:16;;;;;;;36.50;19.42;;;;;;;4.75;92.10;102803.00;5040237;28;20025;-75
2022/04/16 03:46:41;;;;;;;36.67;20.85;;;;;;;4.72;91.98;102804.84;5039938;28;20035;-75
2022/04/16 03:49:07;;;;;;;34.67;19.33;;;;;;;4.70;91.99;102804.91;5056164;28;20036;-75
2022/04/16 03:51:32;;;;;;;34.78;20.55;;;;;;;4.66;91.86;102811.94;5021410;28;20533;-75
2022/04/16 03:59:59;;;;;;;36.75;19.77;;;;;;;4.64;92.16;102816.31;5038980;28;20532;-75
2022/04/16 04:02:12;;;;;;;46.03;22.25;;;;;;;4.60;93.16;102816.53;5058761;28;20533;-76
2022/04/16 04:04:37;;;;;;;38.72;22.95;;;;;;;4.59;93.52;102822.56;5040782;28;20028;-75
2022/04/16 04:07:03;;;;;;;45.92;24.17;;;;;;;4.57;93.90;102821.78;5024430;28;20432;-76
2022/04/16 04:09:28;;;;;;;45.58;24.73;;;;;;;4.54;94.69;102820.19;5059570;28;20419;-75
2022/04/16 04:11:54;;;;;;;44.75;23.65;;;;;;;4.54;94.26;102827.91;5023815;28;20028;-76
2022/04/16 04:14:19;;;;;;;41.65;23.30;;;;;;;4.53;94.64;102821.09;5039512;28;20536;-76
2022/04/16 04:16:45;;;;;;;42.28;23.23;;;;;;;4.51;94.43;102822.06;5040059;28;20040;-76
2022/04/16 04:19:10;;;;;;;45.13;24.33;;;;;;;4.48;94.56;102820.44;5041155;28;20040;-76
2022/04/16 04:21:35;;;;;;;44.28;25.20;;;;;;;4.47;94.57;102827.31;5057428;28;20029;-76
2022/04/16 04:24:01;;;;;;;40.97;23.38;;;;;;;4.45;94.30;102823.16;5041928;28;20024;-76
2022/04/16 04:26:26;;;;;;;46.63;23.38;;;;;;;4.43;94.83;102824.97;5040399;28;20090;-75
2022/04/16 04:28:52;;;;;;;40.67;23.92;;;;;;;4.41;94.56;102827.59;5054802;28;20128;-75
2022/04/16 04:31:18;;;;;;;43.35;24.70;;;;;;;4.40;94.41;102825.09;5038039;28;20021;-75
2022/04/16 04:33:43;;;;;;;43.10;24.77;;;;;;;4.38;94.32;102832.03;5040201;28;20424;-75
2022/04/16 04:36:09;;;;;;;43.42;23.80;;;;;;;4.37;94.64;102831.22;5041272;28;20044;-75
2022/04/16 04:38:34;;;;;;;44.25;24.98;;;;;;;4.37;95.14;102833.78;5055324;28;20630;-75
2022/04/16 04:41:00;;;;;;;45.28;24.80;;;;;;;4.36;95.20;102838.97;5023770;28;20040;-75
2022/04/16 04:43:26;;;;;;;48.40;26.65;;;;;;;4.37;95.14;102835.50;5058442;28;20036;-75
2022/04/16 04:45:51;;;;;;;51.92;26.23;;;;;;;4.35;95.42;102843.28;5052147;28;20036;-75
2022/04/16 04:48:17;;;;;;;52.63;27.63;;;;;;;4.37;95.95;102849.19;5022206;28;20070;-75
2022/04/16 04:50:42;;;;;;;46.17;26.05;;;;;;;4.38;96.24;102857.72;5043248;28;20024;-75
2022/04/16 04:53:08;;;;;;;49.97;26.73;;;;;;;4.39;96.03;102859.38;5060177;28;20097;-75
2022/04/16 04:55:33;;;;;;;54.47;27.77;;;;;;;4.48;96.70;102858.97;5042066;28;20041;-75
2022/04/16 04:57:58;;;;;;;54.58;28.33;;;;;;;4.45;96.77;102859.13;5026502;28;20036;-75
2022/04/16 05:00:24;;;;;;;54.38;28.17;;;;;;;4.44;97.37;102865.16;5058347;28;20501;-75
2022/04/16 05:02:49;;;;;;;51.33;28.77;;;;;;;4.42;97.74;102859.25;5024737;28;20097;-75
2022/04/16 05:05:16;;;;;;;50.38;28.67;;;;;;;4.42;97.83;102867.78;5059832;28;20029;-75
2022/04/16 05:07:42;;;;;;;54.58;28.70;;;;;;;4.44;97.86;102870.31;5058197;28;20089;-75
2022/04/16 05:10:08;;;;;;;55.75;28.58;;;;;;;4.48;98.12;102869.25;5042935;28;20033;-75
2022/04/16 05:12:36;;;;;;;58.22;29.23;;;;;;;4.50;98.37;102870.03;5042361;28;21292;-75
2022/04/16 05:15:03;;;;;;;52.72;28.80;;;;;;;4.50;98.16;102872.59;5040003;28;20418;-76
2022/04/16 05:17:29;;;;;;;47.38;26.88;;;;;;;4.51;98.54;102888.88;5026266;28;20538;-76
2022/04/16 05:19:54;;;;;;;52.80;27.27;;;;;;;4.52;98.75;102885.38;5057738;28;20036;-75
2022/04/16 05:22:20;;;;;;;48.40;25.73;;;;;;;4.51;98.69;102888.88;5058483;28;20035;-75
2022/04/16 05:24:45;;;;;;;52.80;28.15;;;;;;;4.54;98.61;102892.16;5040953;28;20078;-76
2022/04/16 05:27:11;;;;;;;50.55;26.58;;;;;;;4.55;98.47;102900.69;5057972;28;20498;-76
2022/04/16 05:29:56;;;;;;;70.30;32.03;;;;;;;4.72;99.38;102893.06;5054220;28;20259;-76
2022/04/16 05:32:22;;;;;;;64.68;32.58;;;;;;;4.81;100.00;102900.38;5039661;28;20033;-75
2022/04/16 05:34:47;;;;;;;65.45;31.75;;;;;;;4.83;100.00;102906.28;5057198;28;20028;-76
2022/04/16 05:37:13;;;;;;;68.50;33.50;;;;;;;4.94;100.00;102905.81;5041736;28;20032;-75
2022/04/16 05:39:38;;;;;;;71.55;34.22;;;;;;;5.28;100.00;102903.50;5041325;28;20560;-76
2022/04/16 05:42:04;;;;;;;73.63;33.72;;;;;;;5.44;100.00;102912.16;5039305;28;20044;-76
2022/04/16 05:44:30;;;;;;;77.63;35.63;;;;;;;5.49;100.00;102912.78;5041603;28;20029;-75
2022/04/16 05:46:55;;;;;;;67.72;33.20;;;;;;;5.58;100.00;102912.34;5040197;28;20566;-76
2022/04/16 05:49:21;;;;;;;70.47;34.92;;;;;;;5.69;100.00;102917.00;5041315;28;20037;-77
2022/04/16 05:51:46;;;;;;;62.40;33.17;;;;;;;5.91;100.00;102914.22;5037976;28;20033;-76
2022/04/16 05:54:12;;;;;;;68.50;34.33;;;;;;;5.99;100.00;102919.88;5039881;28;21763;-76
2022/04/16 05:56:37;;;;;;;72.20;32.78;;;;;;;6.14;99.66;102914.88;5037471;28;20040;-76
2022/04/16 05:59:03;;;;;;;63.50;32.63;;;;;;;6.27;99.13;102917.69;5040138;28;20512;-76
2022/04/16 06:01:28;;;;;;;63.35;32.28;;;;;;;6.36;98.63;102917.22;5041496;28;20036;-76
2022/04/16 06:03:54;;;;;;;66.07;33.30;;;;;;;6.49;97.86;102920.03;5041477;28;20043;-76
2022/04/16 06:06:19;;;;;;;60.78;30.55;;;;;;;6.62;96.79;102911.59;5044942;28;20032;-76
2022/04/16 06:08:45;;;;;;;58.67;31.10;;;;;;;6.70;95.87;102915.53;5041776;28;20040;-76
2022/04/16 06:11:12;;;;;;;57.30;30.65;;;;;;;6.66;96.15;102908.88;5027280;28;20041;-76
2022/04/16 06:13:37;;;;;;;53.95;30.38;;;;;;;6.52;96.75;102917.31;5057023;28;20078;-76
2022/04/16 06:16:06;;;;;;;60.67;31.55;;;;;;;6.55;97.33;102922.28;5042486;28;20028;-76
2022/04/16 06:18:31;;;;;;;64.85;33.15;;;;;;;6.53;98.24;102929.28;5041342;28;20094;-76
2022/04/16 06:20:57;;;;;;;61.35;32.95;;;;;;;6.68;98.33;102923.31;5040042;28;20032;-76
2022/04/16 06:23:22;;;;;;;63.17;33.75;;;;;;;6.71;97.81;102932.69;5024677;28;20399;-76
2022/04/16 06:25:47;;;;;;;67.25;33.05;;;;;;;6.74;97.90;102935.94;5041607;28;20039;-76
2022/04/16 06:28:13;;;;;;;62.80;32.80;;;;;;;6.75;98.30;102937.59;5059503;28;20528;-76
2022/04/16 06:30:39;;;;;;;62.22;31.83;;;;;;;6.91;98.01;102936.78;5062448;28;20036;-76
2022/04/16 06:33:04;;;;;;;62.05;31.23;;;;;;;7.00;97.55;102937.13;5046091;28;20032;-76
2022/04/16 06:35:30;;;;;;;59.63;31.23;;;;;;;7.14;96.34;102931.25;5044227;28;20109;-76
2022/04/16 06:37:55;;;;;;;84.25;41.08;;;;;;;7.25;96.12;102932.44;5039022;28;20034;-76
2022/04/16 06:40:21;;;;;;;58.47;32.08;;;;;;;7.35;95.58;102934.44;5025696;28;20389;-76
2022/04/16 06:42:47;;;;;;;57.03;29.55;;;;;;;7.46;94.28;102928.69;5038787;28;20071;-74
2022/04/16 06:45:13;;;;;;;50.83;28.02;;;;;;;7.60;94.14;102931.34;5043471;28;20059;-76
2022/04/16 06:47:39;;;;;;;58.58;29.00;;;;;;;7.79;93.44;102930.31;5059184;28;20075;-76
2022/04/16 06:50:05;;;;;;;54.53;29.98;;;;;;;7.92;92.40;102928.72;5042435;28;20064;-76
2022/04/16 06:52:31;;;;;;;52.30;27.08;;;;;;;8.16;91.49;102931.66;5041317;28;20102;-76
2022/04/16 06:54:57;;;;;;;56.90;27.70;;;;;;;8.44;90.85;102934.41;5042021;28;20378;-76
2022/04/16 06:57:23;;;;;;;53.47;27.95;;;;;;;8.81;88.72;102925.31;5038338;28;22537;-76
2022/04/16 06:59:49;;;;;;;49.13;25.33;;;;;;;9.29;85.73;102935.34;5056712;28;20117;-76
2022/04/16 07:02:14;;;;;;;45.92;25.42;;;;;;;9.98;81.94;102925.75;5066162;28;20024;-76
2022/04/16 07:04:41;;;;;;;44.95;24.67;;;;;;;10.82;79.05;102926.25;5047834;28;20097;-76
2022/04/16 07:07:08;;;;;;;42.80;23.30;;;;;;;11.25;75.13;102923.25;5064141;28;20037;-76
2022/04/16 07:09:38;;;;;;;40.47;22.73;;;;;;;11.52;73.51;102920.44;5046846;28;20044;-75
2022/04/16 07:12:06;;;;;;;36.38;21.67;;;;;;;12.22;71.51;102924.03;5046844;28;20490;-76
2022/04/16 07:14:31;;;;;;;34.15;19.50;;;;;;;12.05;70.37;102920.94;5046506;28;20079;-76
2022/04/16 07:16:57;;;;;;;37.05;20.23;;;;;;;11.96;70.50;102934.63;5045092;28;20043;-75
2022/04/16 07:19:22;;;;;;;37.25;20.60;;;;;;;12.56;69.68;102924.91;5044502;28;20035;-76
2022/04/16 07:21:48;;;;;;;33.00;18.30;;;;;;;12.79;67.67;102932.72;5046655;28;20031;-76
2022/04/16 07:24:13;;;;;;;37.20;20.90;;;;;;;12.98;67.39;102925.13;5045150;28;20047;-76
2022/04/16 07:26:39;;;;;;;35.30;19.20;;;;;;;13.21;65.41;102922.50;5043488;28;20029;-75
2022/04/16 07:29:04;;;;;;;32.28;18.58;;;;;;;13.48;63.64;102923.88;5059482;28;20033;-76
2022/04/16 07:31:29;;;;;;;30.90;18.02;;;;;;;13.03;64.50;102915.19;5044218;28;20463;-75
2022/04/16 07:33:55;;;;;;;35.00;18.48;;;;;;;13.05;66.03;102921.13;5043279;28;20036;-76
2022/04/16 07:36:20;;;;;;;27.90;17.05;;;;;;;13.91;64.94;102910.78;5027589;28;20492;-76
2022/04/16 07:38:46;;;;;;;30.77;18.27;;;;;;;14.07;62.53;102919.94;5063874;28;20036;-75
2022/04/16 07:41:11;;;;;;;29.83;17.08;;;;;;;13.63;63.04;102923.44;5044795;28;20491;-75
2022/04/16 07:43:37;;;;;;;30.23;17.73;;;;;;;13.60;63.14;102922.91;5062532;28;20501;-75
2022/04/16 07:46:02;;;;;;;28.00;17.00;;;;;;;13.55;63.62;102918.03;5046371;28;20036;-75
2022/04/16 07:48:28;;;;;;;26.15;16.30;;;;;;;13.55;62.78;102917.22;5027041;28;20098;-76
2022/04/16 07:50:53;;;;;;;28.67;16.75;;;;;;;13.95;62.83;102920.00;5058131;28;20029;-76
2022/04/16 07:53:19;;;;;;;26.67;16.95;;;;;;;13.84;61.54;102917.44;5043451;28;20044;-76
2022/04/16 07:55:45;;;;;;;27.50;16.65;;;;;;;14.54;61.47;102910.72;5042491;28;20048;-75
2022/04/16 07:58:10;;;;;;;27.15;15.68;;;;;;;14.70;60.01;102918.09;5043179;28;20447;-77
2022/04/16 08:00:36;;;;;;;30.95;14.63;;;;;;;15.21;58.44;102912.88;5029216;28;20098;-76
2022/04/16 08:03:01;;;;;;;26.52;15.32;;;;;;;14.73;58.32;102917.00;5038018;28;20452;-76
2022/04/16 08:05:27;;;;;;;33.53;15.02;;;;;;;14.99;59.38;102907.75;5054751;28;20040;-76
2022/04/16 08:07:52;;;;;;;24.42;14.63;;;;;;;15.02;57.58;102916.28;5025732;28;20079;-76
2022/04/16 08:10:18;;;;;;;26.58;15.07;;;;;;;15.10;57.77;102919.03;5041665;28;20032;-76
2022/04/16 08:12:43;;;;;;;22.67;13.63;;;;;;;14.82;57.64;102926.66;5040454;28;20055;-76
2022/04/16 08:15:12;;;;;;;24.60;14.65;;;;;;;14.90;58.04;102921.59;5024792;28;20024;-77
2022/04/16 08:17:37;;;;;;;23.83;14.27;;;;;;;15.08;57.46;102921.78;5024858;28;20035;-76
2022/04/16 08:20:07;;;;;;;20.42;13.50;;;;;;;14.90;57.57;102925.97;5043156;28;20040;-76
2022/04/16 08:22:34;;;;;;;17.33;11.35;;;;;;;15.61;55.28;102925.00;5054733;28;20029;-76
2022/04/16 08:27:47;;;;;;;20.30;13.02;;;;;;;15.04;55.52;102927.41;5041457;28;20029;-76
2022/04/16 08:30:13;;;;;;;18.98;11.85;;;;;;;15.38;54.96;102922.66;5027382;28;20036;-76
2022/04/16 08:32:41;;;;;;;20.58;12.13;;;;;;;15.95;53.78;102917.56;5039749;28;20029;-74
2022/04/16 08:35:11;;;;;;;15.73;9.93;;;;;;;16.20;51.77;102920.53;5058897;28;20402;-76
2022/04/16 08:37:37;;;;;;;14.35;8.98;;;;;;;16.28;51.13;102918.88;5060846;28;20044;-76
2022/04/16 08:40:05;;;;;;;19.77;11.40;;;;;;;16.89;51.48;102924.56;5041914;28;20487;-75
2022/04/16 08:42:32;;;;;;;18.50;11.82;;;;;;;16.91;50.16;102918.25;5044034;28;20032;-76
2022/04/16 08:44:58;;;;;;;20.90;10.30;;;;;;;15.94;50.10;102921.16;5042762;28;20036;-77
2022/04/16 08:47:23;;;;;;;18.20;9.45;;;;;;;16.62;49.50;102920.13;5046749;28;20086;-76
2022/04/16 08:49:49;;;;;;;16.85;9.18;;;;;;;16.85;49.86;102923.22;5042022;28;20021;-76
2022/04/16 08:52:16;;;;;;;13.60;8.73;;;;;;;16.63;48.31;102929.63;5044363;28;20481;-76
2022/04/16 08:54:42;;;;;;;13.00;8.32;;;;;;;16.43;48.28;102928.91;5042435;28;20324;-76
2022/04/16 08:57:07;;;;;;;19.98;8.70;;;;;;;16.85;48.57;102931.09;5063439;28;20046;-77
2022/04/16 08:59:33;;;;;;;15.02;8.50;;;;;;;17.19;47.86;102931.28;5043962;28;20082;-76
2022/04/16 09:01:59;;;;;;;13.10;8.70;;;;;;;17.28;47.23;102927.78;5042282;28;20089;-76
2022/04/16 09:04:28;;;;;;;15.25;8.15;;;;;;;17.15;47.00;102934.38;5062792;28;20032;-77
2022/04/16 09:07:03;;;;;;;11.95;7.18;;;;;;;17.38;45.92;102934.75;5041845;28;20036;-76
2022/04/16 09:09:29;;;;;;;11.77;7.45;;;;;;;16.54;46.73;102932.16;5043020;28;20036;-76
2022/04/16 09:11:55;;;;;;;11.95;7.53;;;;;;;16.76;46.22;102927.50;5062366;28;20024;-76
2022/04/16 09:14:44;;;;;;;11.93;6.53;;;;;;;16.24;46.47;102927.97;5041650;28;20033;-76
2022/04/16 09:17:14;;;;;;;8.50;5.68;;;;;;;16.27;46.08;102926.88;5058251;28;20044;-75
2022/04/16 09:19:40;;;;;;;8.13;4.15;;;;;;;16.39;45.66;102928.34;5045891;28;20687;-76
2022/04/16 09:22:08;;;;;;;8.57;4.65;;;;;;;16.26;46.26;102928.66;5058637;28;20028;-76
2022/04/16 09:24:49;;;;;;;7.53;5.03;;;;;;;16.65;47.24;102927.69;5059022;28;20051;-76
2022/04/16 09:27:15;;;;;;;12.73;5.97;;;;;;;16.44;45.78;102936.59;5044885;28;20085;-76
2022/04/16 09:29:40;;;;;;;7.80;4.55;;;;;;;16.70;46.82;102931.53;5061860;28;20132;-76
2022/04/16 09:32:06;;;;;;;8.70;5.35;;;;;;;16.08;45.84;102941.63;5060062;28;20032;-76
2022/04/16 09:34:32;;;;;;;8.52;4.78;;;;;;;16.26;46.84;102933.91;5045491;28;20027;-76
2022/04/16 09:37:11;;;;;;;8.25;4.50;;;;;;;16.18;45.12;102941.66;5041825;28;20044;-76
2022/04/16 09:39:37;;;;;;;9.88;4.38;;;;;;;15.85;45.31;102941.13;5040551;28;20123;-76
2022/04/16 09:42:03;;;;;;;7.28;4.00;;;;;;;15.80;45.79;102935.47;5040179;28;20036;-77
2022/04/16 09:44:28;;;;;;;8.65;5.30;;;;;;;15.78;45.57;102947.88;5046891;28;20021;-77
2022/04/16 09:46:55;;;;;;;8.38;4.63;;;;;;;16.15;46.14;102934.06;5041582;28;21087;-77
2022/04/16 09:49:21;;;;;;;10.57;5.55;;;;;;;15.11;47.23;102941.59;5044908;28;20029;-76
2022/04/16 09:51:48;;;;;;;9.52;5.32;;;;;;;14.61;49.39;102939.75;5043633;28;20193;-77
2022/04/16 09:54:15;;;;;;;8.73;5.25;;;;;;;14.98;50.02;102937.44;5028941;28;20060;-76
2022/04/16 09:56:44;;;;;;;9.35;5.78;;;;;;;15.27;48.45;102930.63;5046324;28;20037;-76
2022/04/16 09:59:12;;;;;;;11.73;6.10;;;;;;;15.77;47.67;102930.53;5024869;28;20976;-77
2022/04/16 10:01:39;;;;;;;10.50;6.30;;;;;;;15.64;47.53;102938.63;5042062;28;20028;-77
2022/04/16 10:04:08;;;;;;;10.18;6.40;;;;;;;15.04;49.17;102936.06;5040085;28;20040;-77
2022/04/16 10:06:34;;;;;;;8.48;5.65;;;;;;;15.27;49.17;102944.50;5021998;28;20504;-77
2022/04/16 10:09:13;;;;;;;8.75;5.90;;;;;;;15.28;48.28;102940.13;5043072;28;20374;-76
2022/04/16 10:14:56;;;;;;;8.98;5.25;;;;;;;15.55;46.04;102932.41;5063193;28;20024;-77
2022/04/16 10:17:30;;;;;;;8.15;5.18;;;;;;;16.11;46.69;102920.44;5038288;28;20123;-77
2022/04/16 10:20:07;;;;;;;13.10;5.60;;;;;;;16.39;46.31;102927.50;5039246;28;20033;-76
2022/04/16 10:22:33;;;;;;;8.07;5.72;;;;;;;16.06;45.79;102922.63;5041370;28;20024;-77
2022/04/16 10:24:59;;;;;;;8.80;6.03;;;;;;;15.82;45.75;102917.03;5058465;28;20108;-76
2022/04/16 10:27:28;;;;;;;8.15;5.45;;;;;;;15.77;46.01;102915.66;5061327;28;20413;-77
2022/04/16 10:29:59;;;;;;;10.23;4.70;;;;;;;16.00;46.66;102914.53;5037957;28;20402;-76
2022/04/16 10:32:28;;;;;;;7.78;5.30;;;;;;;15.70;46.55;102914.53;5042135;28;20071;-77
2022/04/16 10:35:04;;;;;;;12.23;5.13;;;;;;;16.11;46.08;102927.47;5039404;28;20485;-77
2022/04/16 10:37:37;;;;;;;9.18;5.30;;;;;;;16.18;45.79;102918.09;5039871;28;20136;-76
2022/04/16 10:40:20;;;;;;;15.45;5.82;;;;;;;16.10;46.95;102913.53;5042933;28;20082;-76
2022/04/16 10:42:50;;;;;;;13.50;5.50;;;;;;;15.88;45.43;102926.94;5041020;28;20120;-76
2022/04/16 10:45:16;;;;;;;10.07;5.45;;;;;;;15.91;46.30;102924.88;5042054;28;20469;-77
2022/04/16 10:47:42;;;;;;;8.30;5.45;;;;;;;16.04;46.13;102921.97;5054984;28;20654;-77
2022/04/16 10:50:19;;;;;;;8.02;4.93;;;;;;;15.66;46.09;102921.00;5037725;28;20117;-76
2022/04/16 10:53:02;;;;;;;10.32;5.78;;;;;;;15.48;45.17;102928.72;5058210;28;20044;-77
2022/04/16 10:55:32;;;;;;;9.77;5.73;;;;;;;15.65;46.22;102919.38;5056039;28;20048;-76
2022/04/16 10:58:05;;;;;;;9.73;5.47;;;;;;;15.77;46.56;102917.47;5033319;28;20032;-77
2022/04/16 11:00:41;;;;;;;;;;;;;;;16.06;46.11;102911.34;5027695;28;20028;-79
2022/04/16 11:03:27;;;;;;;8.57;5.22;;;;;;;16.27;44.49;102903.31;5042100;28;19920;-77
2022/04/16 11:06:13;;;;;;;9.45;5.43;;;;;;;16.54;43.86;102898.13;5037911;28;20078;-77
2022/04/16 11:08:40;;;;;;;8.15;5.47;;;;;;;16.14;44.70;102895.75;5056721;28;20040;-76
2022/04/16 11:11:05;;;;;;;10.43;5.25;;;;;;;16.35;44.98;102899.03;5038582;28;20664;-77
2022/04/16 11:13:33;;;;;;;7.85;5.00;;;;;;;16.61;43.77;102894.91;5053633;28;20119;-76
2022/04/16 11:15:59;;;;;;;7.97;4.72;;;;;;;16.58;41.75;102898.66;5054688;28;20064;-76
2022/04/16 11:18:26;;;;;;;6.40;4.53;;;;;;;16.61;43.51;102895.72;5055710;28;20051;-77
2022/04/16 11:20:56;;;;;;;11.73;5.13;;;;;;;16.68;42.94;102891.56;5038971;28;20017;-77
2022/04/16 11:23:26;;;;;;;9.70;5.65;;;;;;;16.81;42.61;102885.16;5038122;28;20123;-77
2022/04/16 11:34:17;;;;;;;7.07;4.68;;;;;;;16.41;42.99;102879.28;5037990;28;20036;-76
2022/04/16 11:36:43;;;;;;;8.00;5.10;;;;;;;16.60;43.49;102890.66;5039327;28;20143;-77
2022/04/16 11:39:22;;;;;;;9.63;5.22;;;;;;;16.36;44.63;102891.97;5056250;28;20136;-77
2022/04/16 11:41:52;;;;;;;9.85;5.63;;;;;;;16.39;42.88;102883.84;5055678;28;20052;-77